createdAt,value
2018-07-13T00:00:11.673Z,19.20
2018-07-13T00:02:40.061Z,19.10
2018-07-13T00:07:36.334Z,19.00
2018-07-13T00:10:04.727Z,18.90
2018-07-13T00:12:33.290Z,18.90
2018-07-13T00:15:08.368Z,18.80
2018-07-13T00:17:36.759Z,18.80
2018-07-13T00:20:05.450Z,18.80
2018-07-13T00:22:33.779Z,18.80
2018-07-13T00:25:02.198Z,18.80
2018-07-13T00:27:31.825Z,18.70
2018-07-13T00:30:00.315Z,18.60
2018-07-13T00:32:28.766Z,18.50
2018-07-13T00:34:57.133Z,18.40
2018-07-13T00:37:25.451Z,18.30
2018-07-13T00:39:53.900Z,18.20
2018-07-13T00:42:22.402Z,18.30
2018-07-13T00:44:50.857Z,18.30
2018-07-13T00:47:19.478Z,18.30
2018-07-13T00:49:47.843Z,18.30
2018-07-13T00:52:16.674Z,18.20
2018-07-13T00:54:45.070Z,18.10
2018-07-13T00:57:13.370Z,18.00
2018-07-13T00:59:41.738Z,18.00
2018-07-13T01:02:10.232Z,18.10
2018-07-13T01:04:38.636Z,18.10
2018-07-13T01:07:07.088Z,18.10
2018-07-13T01:09:35.494Z,18.10
2018-07-13T01:12:03.953Z,18.20
2018-07-13T01:14:32.347Z,18.30
2018-07-13T01:17:00.754Z,18.40
2018-07-13T01:19:29.270Z,18.40
2018-07-13T01:21:57.679Z,18.40
2018-07-13T01:24:26.065Z,18.30
2018-07-13T01:26:54.435Z,18.10
2018-07-13T01:29:22.947Z,18.20
2018-07-13T01:31:51.414Z,18.10
2018-07-13T01:34:19.774Z,18.20
2018-07-13T01:36:48.084Z,18.10
2018-07-13T01:44:12.858Z,17.90
2018-07-13T01:46:41.431Z,17.80
2018-07-13T01:49:09.836Z,17.70
2018-07-13T01:51:38.250Z,17.70
2018-07-13T01:54:07.283Z,17.80
2018-07-13T01:56:35.630Z,17.90
2018-07-13T01:59:04.002Z,17.90
2018-07-13T02:01:32.378Z,17.90
2018-07-13T02:04:00.988Z,17.70
2018-07-13T02:06:29.390Z,17.60
2018-07-13T02:08:57.753Z,17.60
2018-07-13T02:11:26.102Z,17.40
2018-07-13T02:13:54.541Z,17.00
2018-07-13T02:16:22.953Z,17.00
2018-07-13T02:18:51.306Z,17.10
2018-07-13T02:21:19.740Z,17.00
2018-07-13T02:23:48.499Z,17.00
2018-07-13T02:26:16.932Z,17.00
2018-07-13T02:28:45.391Z,17.10
2018-07-13T02:31:13.779Z,17.00
2018-07-13T02:33:42.270Z,16.90
2018-07-13T02:36:10.728Z,16.90
2018-07-13T02:38:39.128Z,17.00
2018-07-13T02:41:07.497Z,16.90
2018-07-13T02:46:04.052Z,16.90
2018-07-13T02:48:32.476Z,17.00
2018-07-13T02:51:00.923Z,16.90
2018-07-13T02:53:29.244Z,17.00
2018-07-13T02:55:57.776Z,17.00
2018-07-13T02:58:26.165Z,17.00
2018-07-13T03:00:54.701Z,16.90
2018-07-13T03:03:23.161Z,17.10
2018-07-13T03:05:51.551Z,17.10
2018-07-13T03:08:19.912Z,17.10
2018-07-13T03:10:48.287Z,17.00
2018-07-13T03:13:16.657Z,16.90
2018-07-13T03:15:45.070Z,16.80
2018-07-13T03:18:13.451Z,16.70
2018-07-13T03:20:41.953Z,16.60
2018-07-13T03:23:10.386Z,16.60
2018-07-13T03:25:38.814Z,16.50
2018-07-13T03:28:07.271Z,16.60
2018-07-13T03:30:35.686Z,16.50
2018-07-13T03:33:04.071Z,16.60
2018-07-13T03:35:32.463Z,16.60
2018-07-13T03:38:00.935Z,16.60
2018-07-13T03:45:25.434Z,16.60
2018-07-13T03:47:53.932Z,16.60
2018-07-13T03:50:22.374Z,16.50
2018-07-13T03:52:50.718Z,16.40
2018-07-13T03:55:19.068Z,16.40
2018-07-13T03:57:47.608Z,16.40
2018-07-13T04:00:16.024Z,16.40
2018-07-13T04:02:44.624Z,16.40
2018-07-13T04:05:13.191Z,16.40
2018-07-13T04:07:41.479Z,16.40
2018-07-13T04:10:09.840Z,16.60
2018-07-13T04:12:38.179Z,16.70
2018-07-13T04:15:06.576Z,16.70
2018-07-13T04:17:35.007Z,16.70
2018-07-13T04:20:03.454Z,16.70
2018-07-13T04:22:31.934Z,16.80
2018-07-13T04:25:00.317Z,16.80
2018-07-13T04:27:28.613Z,16.80
2018-07-13T04:29:57.274Z,16.90
2018-07-13T04:32:25.663Z,16.80
2018-07-13T04:34:54.495Z,17.00
2018-07-13T04:37:23.046Z,17.00
2018-07-13T04:39:51.815Z,17.00
2018-07-13T04:42:21.046Z,17.00
2018-07-13T04:47:17.844Z,17.40
2018-07-13T04:49:46.229Z,17.30
2018-07-13T04:52:14.720Z,17.50
2018-07-13T04:54:43.029Z,17.60
2018-07-13T04:57:12.414Z,17.50
2018-07-13T04:59:42.181Z,17.50
2018-07-13T05:02:10.827Z,17.50
2018-07-13T05:04:39.492Z,17.60
2018-07-13T05:07:10.217Z,17.70
2018-07-13T05:09:40.289Z,17.70
2018-07-13T05:14:38.259Z,17.90
2018-07-13T05:17:08.144Z,18.10
2018-07-13T05:19:37.227Z,18.20
2018-07-13T05:22:08.566Z,18.30
2018-07-13T05:24:39.599Z,18.50
2018-07-13T05:27:08.430Z,18.60
2018-07-13T05:29:37.115Z,19.00
2018-07-13T05:34:36.065Z,19.30
2018-07-13T05:37:06.017Z,19.50
2018-07-13T05:39:35.384Z,19.80
2018-07-13T05:42:05.190Z,19.80
2018-07-13T05:44:34.240Z,20.00
2018-07-13T05:49:35.538Z,20.00
2018-07-13T05:52:09.688Z,20.00
2018-07-13T05:54:40.314Z,19.90
2018-07-13T06:07:09.529Z,20.60
2018-07-13T06:09:38.373Z,20.80
2018-07-13T06:12:07.725Z,21.10
2018-07-13T06:14:37.593Z,21.50
2018-07-13T06:17:07.837Z,21.60
2018-07-13T06:19:37.052Z,21.70
2018-07-13T06:22:07.226Z,21.90
2018-07-13T06:24:37.534Z,21.80
2018-07-13T06:27:08.677Z,21.90
2018-07-13T06:29:38.282Z,22.00
2018-07-13T06:32:09.181Z,22.20
2018-07-13T06:34:38.393Z,22.50
2018-07-13T06:39:36.206Z,22.70
2018-07-13T06:42:04.946Z,22.90
2018-07-13T06:44:33.641Z,22.90
2018-07-13T06:47:02.694Z,22.90
2018-07-13T06:49:32.518Z,22.90
2018-07-13T06:52:01.053Z,23.10
2018-07-13T06:54:32.617Z,23.30
2018-07-13T06:57:02.560Z,23.60
2018-07-13T06:59:31.163Z,23.70
2018-07-13T07:02:01.460Z,23.70
2018-07-13T07:04:32.359Z,23.70
2018-07-13T07:07:03.240Z,24.00
2018-07-13T07:09:33.019Z,24.00
2018-07-13T07:13:14.455Z,24.10
2018-07-13T07:15:44.137Z,24.10
2018-07-13T07:18:15.818Z,24.10
2018-07-13T07:20:45.638Z,24.00
2018-07-13T07:23:14.433Z,24.10
2018-07-13T07:28:11.381Z,24.50
2018-07-13T07:33:12.329Z,24.80
2018-07-13T07:40:40.736Z,25.10
2018-07-13T07:43:09.702Z,25.10
2018-07-13T07:45:39.091Z,25.20
2018-07-13T07:48:09.583Z,25.40
2018-07-13T07:50:38.422Z,25.50
2018-07-13T07:53:07.218Z,25.50
2018-07-13T07:55:35.925Z,25.50
2018-07-13T07:58:06.683Z,25.40
2018-07-13T08:00:36.594Z,25.70
2018-07-13T08:03:07.064Z,25.70
2018-07-13T08:05:37.260Z,26.00
2018-07-13T08:08:07.479Z,26.00
2018-07-13T08:10:37.624Z,26.10
2018-07-13T08:13:08.431Z,26.10
2018-07-13T08:15:39.094Z,26.00
2018-07-13T08:18:09.466Z,26.00
2018-07-13T08:20:45.076Z,25.90
2018-07-13T08:23:14.232Z,25.90
2018-07-13T08:25:45.326Z,26.00
2018-07-13T08:28:16.237Z,27.30
2018-07-13T08:30:55.623Z,26.20
2018-07-13T08:33:25.402Z,26.30
2018-07-13T08:35:55.345Z,26.80
2018-07-13T08:38:24.217Z,26.80
2018-07-13T08:40:53.958Z,26.80
2018-07-13T08:43:23.737Z,27.20
2018-07-13T08:45:52.289Z,27.20
2018-07-13T08:48:20.723Z,27.10
2018-07-13T08:50:49.333Z,27.20
2018-07-13T08:53:18.755Z,27.00
2018-07-13T08:55:47.344Z,26.20
2018-07-13T09:00:45.579Z,27.00
2018-07-13T09:03:14.653Z,27.10
2018-07-13T09:05:43.390Z,27.30
2018-07-13T09:08:12.071Z,27.40
2018-07-13T09:10:40.988Z,27.50
2018-07-13T09:13:09.708Z,27.70
2018-07-13T09:15:39.078Z,27.70
2018-07-13T09:20:36.130Z,27.90
2018-07-13T09:23:04.674Z,27.90
2018-07-13T09:25:34.479Z,27.90
2018-07-13T09:28:02.959Z,28.10
2018-07-13T09:30:31.419Z,28.10
2018-07-13T09:33:00.045Z,28.20
2018-07-13T09:35:28.845Z,28.20
2018-07-13T09:37:57.517Z,28.30
2018-07-13T09:40:26.043Z,28.30
2018-07-13T09:42:55.258Z,28.30
2018-07-13T09:45:24.091Z,28.30
2018-07-13T09:47:52.867Z,28.30
2018-07-13T09:50:21.464Z,28.40
2018-07-13T09:52:50.072Z,28.30
2018-07-13T09:57:47.932Z,28.30
2018-07-13T10:00:16.857Z,28.10
2018-07-13T10:02:45.480Z,28.10
2018-07-13T10:05:13.877Z,27.90
2018-07-13T10:07:43.011Z,27.80
2018-07-13T10:10:15.544Z,27.70
2018-07-13T10:12:44.111Z,27.70
2018-07-13T10:15:12.948Z,27.60
2018-07-13T10:17:41.565Z,27.60
2018-07-13T10:20:10.243Z,27.70
2018-07-13T10:22:38.681Z,27.60
2018-07-13T10:27:37.026Z,27.50
2018-07-13T10:30:07.437Z,27.50
2018-07-13T10:32:35.881Z,27.50
2018-07-13T10:35:06.377Z,27.80
2018-07-13T10:37:34.932Z,27.80
2018-07-13T10:40:03.527Z,27.60
2018-07-13T10:42:32.113Z,27.70
2018-07-13T10:45:01.001Z,28.00
2018-07-13T10:47:29.712Z,28.00
2018-07-13T10:49:58.305Z,28.10
2018-07-13T10:52:26.872Z,31.50
2018-07-13T10:54:55.539Z,28.10
2018-07-13T10:57:24.033Z,28.10
2018-07-13T11:02:20.943Z,28.40
2018-07-13T11:04:49.672Z,28.40
2018-07-13T11:07:18.162Z,28.50
2018-07-13T11:09:46.912Z,28.60
2018-07-13T11:12:15.777Z,28.70
2018-07-13T11:14:44.708Z,28.60
2018-07-13T11:17:13.171Z,28.70
2018-07-13T11:19:41.706Z,28.70
2018-07-13T11:22:10.253Z,28.80
2018-07-13T11:24:38.847Z,28.60
2018-07-13T11:27:07.430Z,28.60
2018-07-13T11:29:36.467Z,28.50
2018-07-13T11:34:33.882Z,28.80
2018-07-13T11:37:02.721Z,28.80
2018-07-13T11:39:31.565Z,28.70
2018-07-13T11:42:00.977Z,28.70
2018-07-13T11:44:29.456Z,28.90
2018-07-13T11:46:58.006Z,29.00
2018-07-13T11:49:27.941Z,28.90
2018-07-13T11:51:57.025Z,28.90
2018-07-13T11:54:26.410Z,28.80
2018-07-13T11:56:55.695Z,28.80
2018-07-13T11:59:24.417Z,28.90
2018-07-13T12:04:21.499Z,28.80
2018-07-13T12:06:50.134Z,28.70
2018-07-13T12:09:18.531Z,28.70
2018-07-13T12:11:46.902Z,28.60
2018-07-13T12:14:15.243Z,28.70
2018-07-13T12:16:43.717Z,28.70
2018-07-13T12:19:12.198Z,28.70
2018-07-13T12:21:40.760Z,29.00
2018-07-13T12:24:09.129Z,28.30
2018-07-13T12:26:37.536Z,28.80
2018-07-13T12:29:06.010Z,28.80
2018-07-13T12:31:34.478Z,28.80
2018-07-13T12:34:02.913Z,28.70
2018-07-13T12:36:31.357Z,28.60
2018-07-13T12:38:59.792Z,28.60
2018-07-13T12:41:28.544Z,28.70
2018-07-13T12:46:25.341Z,28.50
2018-07-13T12:48:53.728Z,28.60
2018-07-13T12:51:22.230Z,28.30
2018-07-13T12:53:50.652Z,28.40
2018-07-13T12:58:47.304Z,28.50
2018-07-13T13:01:15.663Z,28.40
2018-07-13T13:03:44.043Z,28.40
2018-07-13T13:06:12.623Z,28.40
2018-07-13T13:11:10.794Z,28.40
2018-07-13T13:13:39.254Z,28.40
2018-07-13T13:16:07.779Z,28.50
2018-07-13T13:18:36.473Z,28.60
2018-07-13T13:21:05.003Z,28.50
2018-07-13T13:26:01.816Z,28.50
2018-07-13T13:30:58.641Z,28.50
2018-07-13T13:33:27.248Z,28.50
2018-07-13T13:38:24.387Z,28.70
2018-07-13T13:40:52.981Z,28.80
2018-07-13T13:43:21.434Z,28.80
2018-07-13T13:45:49.860Z,28.90
2018-07-13T13:50:46.585Z,28.70
2018-07-13T13:53:15.060Z,28.70
2018-07-13T13:55:43.516Z,28.70
2018-07-13T14:00:40.220Z,28.70
2018-07-13T14:04:40.650Z,28.80
2018-07-13T14:07:49.441Z,28.70
2018-07-13T14:10:17.892Z,28.50
2018-07-13T14:12:46.516Z,28.50
2018-07-13T14:15:15.040Z,28.40
2018-07-13T14:17:43.569Z,28.40
2018-07-13T14:20:12.150Z,28.50
2018-07-13T14:22:40.657Z,28.50
2018-07-13T14:25:09.041Z,28.50
2018-07-13T14:27:37.469Z,28.50
2018-07-13T14:30:06.250Z,28.50
2018-07-13T14:32:34.724Z,28.50
2018-07-13T14:35:03.325Z,28.50
2018-07-13T14:37:31.869Z,28.50
2018-07-13T14:40:00.551Z,28.50
2018-07-13T14:42:29.039Z,28.40
2018-07-13T14:44:57.450Z,28.40
2018-07-13T14:47:25.955Z,28.40
2018-07-13T14:49:54.826Z,28.30
2018-07-13T14:52:23.649Z,27.70
2018-07-13T14:57:21.164Z,28.30
2018-07-13T14:59:49.749Z,28.30
2018-07-13T15:04:46.702Z,28.40
2018-07-13T15:07:15.310Z,28.40
2018-07-13T15:09:43.740Z,28.50
2018-07-13T15:12:12.070Z,28.50
2018-07-13T15:14:40.487Z,28.60
2018-07-13T15:17:08.921Z,28.70
2018-07-13T15:19:37.417Z,28.40
2018-07-13T15:22:05.774Z,28.30
2018-07-13T15:24:34.267Z,28.30
2018-07-13T15:27:02.908Z,28.30
2018-07-13T15:29:31.463Z,28.40
2018-07-13T15:32:00.914Z,28.30
2018-07-13T15:34:29.492Z,28.30
2018-07-13T15:36:58.045Z,28.20
2018-07-13T15:39:26.843Z,28.10
2018-07-13T15:41:56.454Z,28.10
2018-07-13T15:44:26.476Z,28.10
2018-07-13T15:49:23.788Z,28.30
2018-07-13T15:51:53.364Z,28.10
2018-07-13T15:54:22.420Z,28.20
2018-07-13T15:59:20.252Z,28.10
2018-07-13T16:01:49.224Z,28.10
2018-07-13T16:04:17.475Z,28.10
2018-07-13T16:06:45.990Z,28.20
2018-07-13T16:09:14.864Z,28.30
2018-07-13T16:11:43.677Z,28.50
2018-07-13T16:14:12.637Z,28.40
2018-07-13T16:16:41.435Z,28.40
2018-07-13T16:19:10.330Z,28.40
2018-07-13T16:21:40.981Z,28.40
2018-07-13T16:24:10.581Z,28.40
2018-07-13T16:26:39.148Z,28.30
2018-07-13T16:29:08.134Z,28.20
2018-07-13T16:34:04.588Z,28.10
2018-07-13T16:36:33.008Z,28.10
2018-07-13T16:39:01.428Z,28.00
2018-07-13T16:41:29.850Z,28.00
2018-07-13T16:43:58.303Z,27.90
2018-07-13T16:46:26.674Z,27.90
2018-07-13T16:48:55.301Z,27.90
2018-07-13T16:51:23.787Z,27.90
2018-07-13T16:53:52.135Z,27.10
2018-07-13T16:56:20.567Z,27.90
2018-07-13T17:01:16.884Z,28.00
2018-07-13T17:03:45.188Z,28.00
2018-07-13T17:06:13.681Z,28.00
2018-07-13T17:08:42.598Z,28.10
2018-07-13T17:11:10.950Z,28.00
2018-07-13T17:13:39.443Z,28.00
2018-07-13T17:16:08.082Z,28.00
2018-07-13T17:18:36.700Z,27.90
2018-07-13T17:21:05.665Z,27.90
2018-07-13T17:23:34.193Z,27.90
2018-07-13T17:26:02.748Z,27.90
2018-07-13T17:28:32.491Z,27.90
2018-07-13T17:31:01.049Z,27.90
2018-07-13T17:33:29.500Z,27.80
2018-07-13T17:35:58.321Z,27.80
2018-07-13T17:38:27.285Z,27.80
2018-07-13T17:40:55.978Z,27.90
2018-07-13T17:43:24.437Z,27.90
2018-07-13T17:45:52.778Z,27.80
2018-07-13T17:48:21.305Z,27.70
2018-07-13T17:50:49.807Z,27.70
2018-07-13T17:53:18.702Z,27.60
2018-07-13T17:55:47.561Z,27.60
2018-07-13T18:00:44.727Z,27.50
2018-07-13T18:03:13.493Z,25.60
2018-07-13T18:05:42.107Z,27.30
2018-07-13T18:08:10.744Z,27.40
2018-07-13T18:10:39.483Z,27.30
2018-07-13T18:13:08.495Z,27.30
2018-07-13T18:15:37.440Z,27.20
2018-07-13T18:18:06.432Z,27.20
2018-07-13T18:20:35.256Z,27.20
2018-07-13T18:23:04.079Z,27.20
2018-07-13T18:25:32.554Z,27.20
2018-07-13T18:28:01.228Z,27.20
2018-07-13T18:30:29.826Z,27.20
2018-07-13T18:32:58.429Z,27.10
2018-07-13T18:35:26.875Z,26.80
2018-07-13T18:37:55.216Z,26.80
2018-07-13T18:40:23.785Z,26.50
2018-07-13T18:42:52.333Z,26.40
2018-07-13T18:45:20.729Z,26.40
2018-07-13T18:47:49.421Z,26.20
2018-07-13T18:50:18.136Z,26.10
2018-07-13T18:52:46.979Z,26.00
2018-07-13T18:55:15.208Z,25.90
2018-07-13T18:57:43.569Z,25.90
2018-07-13T19:00:12.146Z,25.80
2018-07-13T19:05:08.600Z,25.70
2018-07-13T19:07:37.028Z,25.60
2018-07-13T19:10:05.616Z,25.60
2018-07-13T19:12:34.155Z,25.50
2018-07-13T19:15:02.980Z,25.40
2018-07-13T19:17:31.565Z,25.30
2018-07-13T19:20:00.179Z,25.00
2018-07-13T19:22:28.610Z,25.00
2018-07-13T19:24:57.144Z,24.30
2018-07-13T19:27:26.272Z,24.20
2018-07-13T19:29:55.405Z,23.90
2018-07-13T19:32:24.182Z,23.80
2018-07-13T19:34:54.180Z,23.90
2018-07-13T19:37:24.034Z,23.80
2018-07-13T19:39:59.675Z,23.90
2018-07-13T19:42:28.307Z,23.90
2018-07-13T19:44:56.711Z,23.90
2018-07-13T19:47:25.253Z,23.80
2018-07-13T19:49:53.858Z,23.30
2018-07-13T19:53:25.639Z,23.10
2018-07-13T19:55:54.144Z,22.80
2018-07-13T19:58:22.764Z,22.80
2018-07-13T20:00:51.238Z,22.70
2018-07-13T20:03:19.658Z,22.70
2018-07-13T20:05:48.143Z,22.60
2018-07-13T20:08:16.564Z,22.60
2018-07-13T20:10:45.031Z,22.70
2018-07-13T20:13:13.476Z,22.60
2018-07-13T20:15:41.740Z,22.60
2018-07-13T20:18:10.151Z,22.60
2018-07-13T20:20:38.435Z,22.40
2018-07-13T20:23:08.980Z,22.30
2018-07-13T20:25:37.435Z,22.10
2018-07-13T20:30:38.341Z,21.90
2018-07-13T20:33:06.925Z,21.70
2018-07-13T20:35:35.285Z,21.80
2018-07-13T20:38:03.854Z,21.60
2018-07-13T20:40:32.508Z,21.50
2018-07-13T20:43:00.984Z,21.50
2018-07-13T20:45:29.438Z,21.60
2018-07-13T20:47:59.141Z,21.60
2018-07-13T20:50:27.809Z,21.40
2018-07-13T20:52:56.555Z,21.30
2018-07-13T20:55:25.171Z,21.20
2018-07-13T20:57:53.928Z,21.20
2018-07-13T21:00:23.351Z,21.20
2018-07-13T21:05:22.563Z,21.20
2018-07-13T21:07:51.132Z,21.30
2018-07-13T21:10:20.769Z,21.20
2018-07-13T21:12:48.996Z,21.20
2018-07-13T21:15:17.403Z,21.30
2018-07-13T21:17:47.966Z,21.20
2018-07-13T21:20:17.280Z,21.10
2018-07-13T21:22:46.189Z,20.80
2018-07-13T21:25:14.624Z,20.80
2018-07-13T21:27:43.019Z,20.70
2018-07-13T21:30:11.411Z,20.70
2018-07-13T21:32:39.742Z,20.70
2018-07-13T21:35:08.094Z,20.70
2018-07-13T21:37:36.446Z,20.70
2018-07-13T21:42:32.809Z,20.70
2018-07-13T21:45:01.420Z,20.70
2018-07-13T21:47:29.843Z,20.50
2018-07-13T21:49:58.268Z,20.40
2018-07-13T21:52:26.750Z,20.40
2018-07-13T21:54:55.302Z,20.40
2018-07-13T21:57:23.710Z,20.30
2018-07-13T21:59:52.242Z,20.30
2018-07-13T22:02:21.198Z,20.30
2018-07-13T22:04:49.618Z,20.30
2018-07-13T22:07:18.158Z,20.30
2018-07-13T22:09:46.743Z,20.30
2018-07-13T22:12:16.527Z,20.30
2018-07-13T22:14:45.003Z,20.30
2018-07-13T22:17:13.351Z,20.20
2018-07-13T22:19:41.738Z,19.90
2018-07-13T22:22:12.137Z,19.80
2018-07-13T22:24:40.866Z,19.60
2018-07-13T22:29:38.520Z,19.50
2018-07-13T22:32:07.193Z,19.40
2018-07-13T22:34:43.660Z,19.50
2018-07-13T22:37:20.830Z,19.60
2018-07-13T22:47:26.545Z,19.40
2018-07-13T22:49:55.286Z,19.50
2018-07-13T22:57:22.658Z,19.20
2018-07-13T23:00:14.241Z,19.30
2018-07-13T23:02:43.250Z,19.20
2018-07-13T23:05:19.111Z,19.20
2018-07-13T23:07:47.999Z,19.20
2018-07-13T23:10:16.401Z,19.00
2018-07-13T23:12:50.529Z,19.10
2018-07-13T23:15:19.299Z,19.10
2018-07-13T23:17:48.396Z,19.00
2018-07-13T23:20:16.584Z,19.10
2018-07-13T23:22:53.668Z,19.00
2018-07-13T23:25:22.141Z,19.10
2018-07-13T23:28:05.103Z,19.10
2018-07-13T23:33:17.761Z,19.10
2018-07-13T23:35:59.643Z,19.10
2018-07-13T23:43:42.817Z,19.10
2018-07-13T23:46:11.533Z,19.10
2018-07-13T23:48:45.793Z,19.10
2018-07-13T23:51:34.947Z,19.00
2018-07-13T23:54:10.428Z,18.90
2018-07-13T23:56:42.121Z,18.70
2018-07-13T23:59:11.243Z,18.70
